Time;durP1;ratioP1;P1;durP2;ratioP2;P2;SDS_P1;SDS_P2;PMS_P1;PMS_P2;Temp;Humidity;BMP_temperature;BMP_pressure;BME280_temperature;BME280_humidity;BME280_pressure;Samples;Min_cycle;Max_cycle;Signal;HPM_P1;HPM_P2
2022/03/21 00:03:28;;;;;;;19.35;14.05;;;;;;;11.19;35.44;101565.13;10395398;28;20053;-61
2022/03/21 00:08:30;;;;;;;16.02;13.55;;;;;;;11.09;35.47;101558.66;10405070;28;20049;-62
2022/03/21 00:13:31;;;;;;;14.23;12.77;;;;;;;11.08;35.51;101554.28;10401053;28;20040;-60
2022/03/21 00:18:34;;;;;;;15.40;13.75;;;;;;;11.14;35.48;101568.09;10401025;28;20050;-60
2022/03/21 00:23:35;;;;;;;14.13;12.63;;;;;;;10.95;35.87;101555.03;10398625;28;20034;-58
2022/03/21 00:28:36;;;;;;;14.02;12.45;;;;;;;11.04;35.52;101582.94;10401121;28;20054;-59
2022/03/21 00:33:38;;;;;;;14.93;13.43;;;;;;;11.02;35.80;101576.84;10398427;28;20054;-60
2022/03/21 00:38:41;;;;;;;14.25;12.85;;;;;;;10.98;35.68;101572.66;10392127;28;20060;-60
2022/03/21 00:43:42;;;;;;;16.38;14.68;;;;;;;10.94;35.47;101577.31;10403072;28;20046;-61
2022/03/21 00:48:44;;;;;;;14.25;12.57;;;;;;;10.88;35.22;101582.16;10397544;28;20052;-62
2022/03/21 00:53:45;;;;;;;13.77;12.48;;;;;;;10.83;35.25;101587.75;10398275;28;20056;-61
2022/03/21 00:58:46;;;;;;;14.23;12.73;;;;;;;10.82;35.41;101587.84;10399750;28;20131;-60
2022/03/21 01:03:48;;;;;;;14.48;12.23;;;;;;;10.69;34.92;101580.59;10395190;28;20079;-62
2022/03/21 01:08:49;;;;;;;14.18;12.30;;;;;;;10.63;35.10;101572.13;10398738;28;20049;-62
2022/03/21 01:13:51;;;;;;;14.57;13.07;;;;;;;10.68;35.22;101583.38;10398894;28;20085;-60
2022/03/21 01:18:52;;;;;;;15.38;12.57;;;;;;;10.64;35.52;101568.50;10392961;28;20045;-61
2022/03/21 01:23:53;;;;;;;14.27;12.77;;;;;;;10.51;35.50;101549.72;10394562;28;20026;-60
2022/03/21 01:28:57;;;;;;;13.88;12.35;;;;;;;10.54;35.29;101574.38;10390378;28;20053;-61
2022/03/21 01:33:58;;;;;;;13.23;11.60;;;;;;;10.27;35.80;101551.06;10384797;28;20045;-60
2022/03/21 01:39:00;;;;;;;13.95;11.95;;;;;;;10.38;35.49;101571.75;10394361;28;20045;-60
2022/03/21 01:44:08;;;;;;;14.73;13.18;;;;;;;10.33;35.74;101563.19;10391906;28;20065;-59
2022/03/21 01:49:09;;;;;;;15.65;12.43;;;;;;;10.33;35.98;101562.28;10380125;28;20053;-62
2022/03/21 01:59:33;;;;;;;13.88;12.55;;;;;;;10.17;36.56;101565.00;10355253;28;20041;-60
2022/03/21 02:04:35;;;;;;;14.50;12.95;;;;;;;10.12;36.71;101578.59;10351487;28;20153;-59
2022/03/21 02:09:36;;;;;;;14.52;13.02;;;;;;;10.06;36.64;101563.81;10361091;28;20056;-59
2022/03/21 02:14:39;;;;;;;15.10;13.60;;;;;;;9.93;36.86;101546.00;10355725;28;20128;-61
2022/03/21 02:19:45;;;;;;;13.40;12.05;;;;;;;9.98;36.76;101560.72;10358554;28;20928;-61
2022/03/21 02:24:46;;;;;;;14.60;13.07;;;;;;;9.93;36.89;101567.28;10363314;28;20080;-59
2022/03/21 02:29:48;;;;;;;13.20;11.82;;;;;;;9.86;36.66;101562.31;10353730;28;20055;-59
2022/03/21 02:34:50;;;;;;;13.18;11.80;;;;;;;9.76;36.96;101561.13;10357949;28;20059;-59
2022/03/21 02:39:54;;;;;;;14.93;12.85;;;;;;;9.66;37.30;101567.88;10356293;28;20517;-59
2022/03/21 02:44:56;;;;;;;13.32;11.82;;;;;;;9.67;37.13;101582.91;10359807;28;20061;-61
2022/03/21 02:49:59;;;;;;;14.82;13.30;;;;;;;9.68;37.63;101584.59;10358638;28;20073;-59
2022/03/21 02:55:02;;;;;;;14.82;13.38;;;;;;;9.69;37.57;101597.81;10355366;28;20084;-59
2022/03/21 03:00:04;;;;;;;14.23;12.75;;;;;;;9.63;37.72;101592.84;10357818;28;20577;-60
2022/03/21 03:05:07;;;;;;;14.70;13.20;;;;;;;9.60;37.69;101594.81;10359592;28;20096;-60
2022/03/21 03:10:08;;;;;;;13.48;12.07;;;;;;;9.58;37.79;101600.22;10356685;28;20057;-60
2022/03/21 03:15:09;;;;;;;14.27;12.88;;;;;;;9.45;37.90;101596.50;10356288;28;20659;-62
2022/03/21 03:20:11;;;;;;;14.43;12.93;;;;;;;9.50;37.53;101602.41;10359602;28;20054;-61
2022/03/21 03:25:12;;;;;;;15.25;13.65;;;;;;;9.42;37.99;101600.19;10389470;28;20054;-61
2022/03/21 03:30:14;;;;;;;15.32;13.73;;;;;;;9.38;38.18;101595.97;10364496;28;20497;-60
2022/03/21 03:35:15;;;;;;;15.20;13.70;;;;;;;9.33;38.06;101617.47;10358340;28;20054;-62
2022/03/21 03:40:17;;;;;;;17.02;15.23;;;;;;;9.17;38.20;101603.28;10355229;28;20204;-61
2022/03/21 03:45:19;;;;;;;15.90;13.98;;;;;;;9.26;38.31;101626.72;10357189;28;20079;-60
2022/03/21 03:50:21;;;;;;;14.52;13.10;;;;;;;9.23;37.93;101634.00;10354883;28;20112;-60
2022/03/21 03:55:22;;;;;;;15.57;13.93;;;;;;;9.16;38.20;101631.66;10354253;28;20140;-60
2022/03/21 04:00:24;;;;;;;15.93;14.23;;;;;;;9.01;38.25;101611.22;10354923;28;20132;-61
2022/03/21 04:05:26;;;;;;;14.27;12.88;;;;;;;9.01;38.01;101630.66;10354827;28;20109;-59
2022/03/21 04:10:27;;;;;;;14.45;11.82;;;;;;;8.98;37.85;101624.66;10359935;28;20431;-61
2022/03/21 04:15:29;;;;;;;13.05;11.10;;;;;;;8.94;37.27;101625.75;10353960;28;20137;-60
2022/03/21 04:20:32;;;;;;;12.27;11.07;;;;;;;8.96;37.74;101631.84;10354946;28;20151;-62
2022/03/21 04:25:33;;;;;;;12.40;11.10;;;;;;;8.96;37.57;101640.69;10357414;28;20049;-61
2022/03/21 04:30:36;;;;;;;12.38;11.07;;;;;;;8.93;37.52;101639.97;10352410;28;20167;-62
2022/03/21 04:35:38;;;;;;;12.70;11.40;;;;;;;8.89;37.71;101646.38;10350624;28;20075;-60
2022/03/21 04:40:42;;;;;;;13.82;12.15;;;;;;;8.84;37.53;101650.13;10362511;28;20060;-61
2022/03/21 04:45:45;;;;;;;12.10;10.80;;;;;;;8.71;37.51;101645.50;10351094;28;20075;-60
2022/03/21 04:50:47;;;;;;;13.23;11.60;;;;;;;8.67;37.29;101661.59;10348386;28;20056;-60
2022/03/21 04:55:48;;;;;;;13.23;11.95;;;;;;;8.55;37.46;101650.75;10353323;28;20049;-60
2022/03/21 05:00:50;;;;;;;13.45;11.25;;;;;;;8.48;37.51;101656.34;10352381;28;20039;-60
2022/03/21 05:05:51;;;;;;;13.15;11.80;;;;;;;8.46;37.87;101663.50;10353166;28;20042;-60
2022/03/21 05:10:53;;;;;;;12.68;11.25;;;;;;;8.45;37.56;101667.13;10353389;28;20057;-60
2022/03/21 05:15:54;;;;;;;13.40;11.95;;;;;;;8.42;37.82;101650.44;10351665;28;20052;-61
2022/03/21 05:20:56;;;;;;;15.07;12.30;;;;;;;8.49;37.77;101679.28;10349151;28;20099;-60
2022/03/21 05:31:17;;;;;;;15.30;11.65;;;;;;;8.41;37.82;101691.19;10350259;28;20180;-60
2022/03/21 05:36:23;;;;;;;14.07;12.68;;;;;;;8.33;37.67;101683.59;10344430;28;20100;-59
2022/03/21 05:41:26;;;;;;;12.38;11.18;;;;;;;8.28;37.58;101690.91;10350896;28;20044;-61
2022/03/21 05:46:27;;;;;;;12.70;11.50;;;;;;;8.30;37.74;101694.34;10346050;28;20471;-60
2022/03/21 05:51:34;;;;;;;16.00;12.02;;;;;;;8.23;37.80;101695.59;10331317;28;20128;-60
2022/03/21 05:56:37;;;;;;;12.70;11.48;;;;;;;8.29;37.72;101711.22;10337695;28;20080;-60
2022/03/21 06:01:38;;;;;;;13.38;11.10;;;;;;;8.25;37.85;101701.69;10339035;28;20625;-60
2022/03/21 06:06:45;;;;;;;13.20;11.80;;;;;;;8.35;37.96;101702.97;10350062;28;20869;-60
2022/03/21 06:11:50;;;;;;;13.55;12.15;;;;;;;8.38;37.53;101707.28;10350709;28;20160;-61
2022/03/21 06:16:51;;;;;;;14.05;12.40;;;;;;;8.49;37.56;101711.13;10347459;28;20061;-63
2022/03/21 06:21:53;;;;;;;13.70;12.32;;;;;;;8.52;37.23;101719.91;10349561;28;20531;-61
2022/03/21 06:26:54;;;;;;;13.70;12.32;;;;;;;8.64;37.21;101720.13;10348378;28;20050;-60
2022/03/21 06:31:56;;;;;;;14.52;11.85;;;;;;;8.73;37.20;101729.44;10350000;28;20056;-61
2022/03/21 06:36:57;;;;;;;12.90;11.70;;;;;;;8.76;37.18;101737.25;10349172;28;21346;-59
2022/03/21 06:41:58;;;;;;;14.00;12.50;;;;;;;8.83;36.79;101725.41;10342206;28;20060;-59
2022/03/21 06:47:00;;;;;;;13.77;12.38;;;;;;;8.92;36.66;101739.19;10344604;28;20053;-58
2022/03/21 06:52:04;;;;;;;14.07;12.57;;;;;;;8.91;36.60;101719.72;10342721;28;20518;-58
2022/03/21 06:57:05;;;;;;;16.50;13.10;;;;;;;9.20;36.20;101749.25;10344882;28;20053;-59
2022/03/21 07:02:07;;;;;;;13.75;12.18;;;;;;;9.23;36.36;101748.25;10345310;28;20057;-59
2022/03/21 07:07:09;;;;;;;16.30;12.65;;;;;;;9.40;36.48;101756.22;10343268;28;20495;-62
2022/03/21 07:12:10;;;;;;;16.30;11.93;;;;;;;9.63;35.88;101770.97;10344162;28;20052;-66
2022/03/21 07:17:12;;;;;;;15.20;12.70;;;;;;;9.62;36.09;101765.72;10350530;28;20045;-62
2022/03/21 07:22:14;;;;;;;15.40;14.00;;;;;;;9.82;35.41;101768.19;10344093;28;20045;-61
2022/03/21 07:27:16;;;;;;;15.13;13.18;;;;;;;9.81;35.11;101750.50;10345899;28;20680;-60
2022/03/21 07:32:18;;;;;;;14.40;12.60;;;;;;;10.06;34.62;101773.16;10344576;28;20333;-59
2022/03/21 07:37:20;;;;;;;13.07;11.55;;;;;;;10.29;34.90;101777.22;10339638;28;21004;-59
2022/03/21 07:42:21;;;;;;;15.98;14.00;;;;;;;10.48;34.34;101769.09;10341620;28;20057;-60
2022/03/21 07:47:23;;;;;;;15.38;12.77;;;;;;;10.75;33.62;101776.47;10341738;28;20635;-59
2022/03/21 07:52:24;;;;;;;20.02;14.18;;;;;;;10.68;34.37;101777.78;10342076;28;20152;-59
2022/03/21 07:57:27;;;;;;;16.48;14.80;;;;;;;10.97;33.51;101762.75;10344263;28;21260;-59
2022/03/21 08:02:29;;;;;;;16.92;13.13;;;;;;;11.25;33.19;101767.34;10338897;28;20060;-61
2022/03/21 08:07:34;;;;;;;14.85;13.35;;;;;;;11.44;33.18;101758.22;10339370;28;20057;-61
2022/03/21 08:12:37;;;;;;;13.90;12.50;;;;;;;11.82;32.20;101781.72;10344207;28;20064;-60
2022/03/21 08:17:52;;;;;;;15.68;13.32;;;;;;;12.03;32.17;101791.09;10340858;28;20330;-60
2022/03/21 08:22:53;;;;;;;13.68;12.38;;;;;;;12.23;31.73;101790.81;10344881;28;20532;-60
2022/03/21 08:27:54;;;;;;;15.40;12.63;;;;;;;12.49;31.35;101787.34;10343489;28;20049;-60
2022/03/21 08:32:56;;;;;;;14.13;12.55;;;;;;;12.77;30.02;101784.69;10338390;28;20263;-60
2022/03/21 08:37:57;;;;;;;13.10;11.77;;;;;;;12.79;29.71;101793.44;10336832;28;20594;-60
2022/03/21 08:42:59;;;;;;;13.48;12.07;;;;;;;12.97;29.94;101786.91;10337500;28;20077;-61
2022/03/21 08:48:00;;;;;;;12.48;11.18;;;;;;;13.56;29.33;101794.56;10340904;28;20065;-60
2022/03/21 08:53:02;;;;;;;14.55;11.98;;;;;;;13.65;28.52;101801.09;10336362;28;20057;-60
2022/03/21 08:58:04;;;;;;;13.57;11.68;;;;;;;13.70;28.60;101793.59;10342287;28;20080;-61
2022/03/21 09:03:05;;;;;;;13.13;11.85;;;;;;;14.10;28.05;101792.63;10338114;28;20053;-59
2022/03/21 09:08:08;;;;;;;13.98;12.38;;;;;;;14.35;27.27;101775.63;10332348;28;20827;-61
2022/03/21 09:13:10;;;;;;;12.65;11.45;;;;;;;14.59;27.25;101786.44;10338960;28;20046;-60
2022/03/21 09:18:11;;;;;;;14.02;12.52;;;;;;;15.01;26.91;101792.28;10339816;28;20372;-57
2022/03/21 09:23:13;;;;;;;13.48;12.07;;;;;;;15.41;26.23;101785.72;10327509;28;20046;-59
2022/03/21 09:28:14;;;;;;;12.63;11.40;;;;;;;15.85;25.93;101783.25;10333922;28;20064;-60
2022/03/21 09:33:16;;;;;;;13.30;11.90;;;;;;;16.19;25.18;101781.44;10324228;28;20196;-59
2022/03/21 09:38:17;;;;;;;14.05;12.18;;;;;;;16.50;24.74;101765.53;10336683;28;20053;-60
2022/03/21 09:43:19;;;;;;;13.05;11.48;;;;;;;16.78;24.35;101766.78;10347925;28;20068;-59
2022/03/21 09:48:22;;;;;;;14.45;12.90;;;;;;;16.93;24.55;101767.38;10351037;28;20210;-59
2022/03/21 09:53:28;;;;;;;13.07;11.93;;;;;;;17.35;24.35;101773.78;10340036;28;20131;-59
2022/03/21 09:58:30;;;;;;;15.80;14.10;;;;;;;17.58;23.49;101755.66;10345005;28;20105;-60
2022/03/21 10:03:34;;;;;;;13.25;11.95;;;;;;;18.05;23.48;101755.22;10345582;28;20118;-62
2022/03/21 10:08:36;;;;;;;14.85;12.35;;;;;;;19.04;22.29;101749.88;10346641;28;20164;-61
2022/03/21 10:13:41;;;;;;;14.93;13.30;;;;;;;19.98;21.19;101740.16;10345461;28;20635;-58
2022/03/21 10:18:51;;;;;;;14.00;12.60;;;;;;;22.37;18.72;101748.41;10347306;28;20053;-59
2022/03/21 10:24:02;;;;;;;14.40;12.40;;;;;;;24.81;16.42;101731.97;10343659;28;20503;-60
2022/03/21 10:29:10;;;;;;;12.90;11.80;;;;;;;26.10;15.78;101738.19;10349983;28;20137;-59
2022/03/21 10:34:13;;;;;;;12.70;11.43;;;;;;;25.22;15.51;101737.06;10347717;28;20140;-59
2022/03/21 10:39:14;;;;;;;14.50;12.60;;;;;;;24.24;17.18;101733.16;10348444;28;20153;-60
2022/03/21 10:44:20;;;;;;;14.40;13.05;;;;;;;24.26;16.57;101731.09;10349054;28;20420;-60
2022/03/21 10:49:43;;;;;;;14.95;13.48;;;;;;;26.37;15.64;101727.59;10347885;28;20829;-60
2022/03/21 10:54:48;;;;;;;14.55;13.13;;;;;;;28.95;13.06;101729.63;10350941;28;20518;-60
2022/03/21 10:59:49;;;;;;;14.75;13.25;;;;;;;30.27;11.95;101729.59;10345727;28;20480;-59
2022/03/21 11:04:51;;;;;;;15.27;13.77;;;;;;;31.25;11.13;101715.59;10345006;28;20049;-60
2022/03/21 11:09:52;;;;;;;13.70;12.25;;;;;;;32.23;10.63;101714.72;10342598;28;20602;-59
2022/03/21 11:14:53;;;;;;;;;;;;;;;32.84;10.18;101709.16;10344984;28;20053;-60
2022/03/21 11:19:57;;;;;;;13.90;12.70;;;;;;;33.63;9.65;101705.22;10346001;28;19929;-59
2022/03/21 11:25:06;;;;;;;14.20;13.00;;;;;;;34.78;9.63;101694.19;10343693;28;20057;-61
2022/03/21 11:30:21;;;;;;;13.27;11.93;;;;;;;35.11;8.55;101686.97;10345067;28;20260;-62
2022/03/21 11:35:28;;;;;;;14.10;12.77;;;;;;;35.13;8.58;101684.78;10340713;28;20077;-60
2022/03/21 11:40:35;;;;;;;14.05;12.82;;;;;;;35.27;8.61;101689.97;10343650;28;20049;-66
2022/03/21 11:45:37;;;;;;;14.07;12.65;;;;;;;36.56;8.67;101672.94;10343582;28;20060;-61
2022/03/21 11:50:38;;;;;;;13.38;12.18;;;;;;;37.04;7.95;101662.78;10342004;28;20692;-60
2022/03/21 11:55:44;;;;;;;13.77;12.57;;;;;;;38.00;7.61;101673.81;10341663;28;20077;-61
2022/03/21 12:01:09;;;;;;;16.08;13.73;;;;;;;38.40;7.43;101682.50;10340972;28;20120;-60
2022/03/21 12:06:19;;;;;;;13.82;12.68;;;;;;;38.14;7.75;101669.38;10346893;28;20056;-61
2022/03/21 12:11:53;;;;;;;14.05;12.85;;;;;;;37.52;7.64;101657.22;10340527;28;20042;-61
2022/03/21 12:17:00;;;;;;;14.65;13.25;;;;;;;38.14;7.55;101651.84;10341645;28;20620;-61
2022/03/21 12:22:26;;;;;;;13.88;12.77;;;;;;;38.94;7.34;101637.41;10337444;28;20042;-61
2022/03/21 12:27:40;;;;;;;13.73;12.60;;;;;;;39.00;7.31;101630.69;10335602;28;20135;-60
2022/03/21 12:32:49;;;;;;;14.48;13.18;;;;;;;38.64;7.26;101616.00;10337882;28;20101;-62
2022/03/21 12:37:50;;;;;;;13.90;12.80;;;;;;;37.91;7.72;101605.97;10342033;28;20072;-60
2022/03/21 12:42:54;;;;;;;13.57;12.38;;;;;;;37.09;7.82;101617.56;10344743;28;20288;-60
2022/03/21 12:48:00;;;;;;;13.48;12.27;;;;;;;37.78;7.80;101607.34;10344430;28;20183;-60
2022/03/21 12:53:09;;;;;;;14.15;12.95;;;;;;;38.01;7.71;101620.72;10343680;28;20083;-61
2022/03/21 12:58:15;;;;;;;14.10;12.93;;;;;;;39.43;6.96;101608.84;10337303;28;20415;-61
2022/03/21 13:03:17;;;;;;;14.23;13.02;;;;;;;39.83;6.65;101594.16;10339741;28;20059;-61
2022/03/21 13:13:40;;;;;;;13.40;12.40;;;;;;;38.16;7.16;101596.81;10340573;28;20124;-62
2022/03/21 13:18:41;;;;;;;14.63;13.32;;;;;;;34.57;9.08;101581.59;10339214;28;20048;-60
2022/03/21 13:23:44;;;;;;;14.20;13.00;;;;;;;31.28;11.03;101583.97;10338697;28;20579;-60
2022/03/21 13:28:47;;;;;;;13.90;12.60;;;;;;;29.96;12.08;101590.38;10338280;28;20103;-60
2022/03/21 13:33:58;;;;;;;14.20;13.02;;;;;;;29.01;12.75;101582.69;10339292;28;20061;-61
2022/03/21 13:39:16;;;;;;;12.85;11.70;;;;;;;28.19;13.55;101580.16;10340588;28;20137;-60
2022/03/21 13:44:18;;;;;;;15.13;13.73;;;;;;;27.01;14.36;101575.69;10336461;28;20188;-60
2022/03/21 13:49:19;;;;;;;14.80;13.50;;;;;;;26.11;15.00;101578.06;10332938;28;20053;-60
2022/03/21 13:54:21;;;;;;;15.15;13.57;;;;;;;25.54;15.77;101590.59;10338491;28;20128;-60
2022/03/21 13:59:23;;;;;;;16.48;14.27;;;;;;;24.83;16.62;101583.72;10336327;28;20049;-60
2022/03/21 14:04:25;;;;;;;14.93;13.63;;;;;;;24.49;16.72;101576.84;10339425;28;20168;-62
2022/03/21 14:09:28;;;;;;;;;;;;;;;24.23;17.20;101574.53;10339577;28;20050;-60
2022/03/21 14:14:30;;;;;;;13.80;12.50;;;;;;;23.85;17.28;101568.97;10337546;28;20602;-58
2022/03/21 14:19:34;;;;;;;14.83;13.40;;;;;;;23.40;17.88;101568.66;10340930;28;20052;-59
2022/03/21 14:24:35;;;;;;;16.50;14.88;;;;;;;22.86;18.73;101566.59;10338368;28;20064;-60
2022/03/21 14:29:37;;;;;;;14.38;12.90;;;;;;;22.61;18.78;101552.25;10346142;28;20123;-60
2022/03/21 14:34:38;;;;;;;16.15;14.48;;;;;;;22.37;18.96;101540.38;10349122;28;20203;-59
2022/03/21 14:39:39;;;;;;;16.02;14.43;;;;;;;22.23;19.09;101543.72;10343807;28;20686;-60
2022/03/21 14:44:41;;;;;;;14.27;12.80;;;;;;;22.24;19.26;101557.13;10339083;28;20052;-60
2022/03/21 14:49:42;;;;;;;14.80;13.38;;;;;;;21.96;19.44;101553.03;10343925;28;20625;-61
2022/03/21 14:54:44;;;;;;;14.75;13.27;;;;;;;21.56;19.46;101528.41;10341925;28;20038;-59
2022/03/21 14:59:45;;;;;;;13.98;12.50;;;;;;;21.34;19.73;101560.44;10338950;28;20140;-60
2022/03/21 15:04:47;;;;;;;13.60;12.30;;;;;;;20.99;19.98;101551.47;10341528;28;20059;-60
2022/03/21 15:15:09;;;;;;;13.75;12.43;;;;;;;20.88;20.53;101548.19;10340353;28;20056;-61
2022/03/21 15:20:12;;;;;;;13.95;12.48;;;;;;;20.58;21.08;101542.19;10341727;28;20045;-60
2022/03/21 15:25:15;;;;;;;14.00;12.45;;;;;;;20.36;20.86;101533.59;10343370;28;20054;-62
2022/03/21 15:30:37;;;;;;;13.85;12.10;;;;;;;20.32;21.86;101532.22;10339118;28;20370;-60
2022/03/21 15:35:40;;;;;;;13.47;12.07;;;;;;;20.16;22.00;101532.91;10344634;28;20054;-62
2022/03/21 15:41:45;;;;;;;11.95;10.70;;;;;;;20.10;22.43;101525.41;10342844;28;20057;-61
2022/03/21 15:46:14;;;;;;;14.43;11.82;;;;;;;19.74;22.74;101528.94;10339377;28;20057;-60
2022/03/21 15:51:16;;;;;;;12.32;11.13;;;;;;;19.47;21.90;101528.97;10341355;28;20076;-61
2022/03/21 15:56:18;;;;;;;13.48;12.07;;;;;;;19.09;22.25;101534.41;10337252;28;20066;-59
2022/03/21 16:01:19;;;;;;;11.75;10.65;;;;;;;18.97;22.59;101531.03;10340354;28;20060;-62
2022/03/21 16:06:21;;;;;;;14.15;11.55;;;;;;;18.68;22.97;101509.53;10339386;28;20076;-58
2022/03/21 16:11:24;;;;;;;13.68;12.20;;;;;;;18.47;23.20;101517.81;10335374;28;20050;-59
2022/03/21 16:16:26;;;;;;;13.45;11.63;;;;;;;18.40;23.51;101535.53;10338511;28;20053;-60
2022/03/21 16:21:28;;;;;;;13.43;12.10;;;;;;;18.23;24.03;101548.75;10341199;28;20451;-60
2022/03/21 16:26:29;;;;;;;14.27;12.77;;;;;;;18.04;24.16;101543.34;10338959;28;20428;-60
2022/03/21 16:31:31;;;;;;;12.63;11.35;;;;;;;17.90;24.29;101553.56;10340071;28;20049;-61
2022/03/21 16:36:34;;;;;;;13.02;11.70;;;;;;;17.65;24.59;101538.72;10335597;28;20125;-60
2022/03/21 16:41:36;;;;;;;13.30;11.90;;;;;;;17.46;25.05;101547.63;10336876;28;20108;-61
2022/03/21 16:46:37;;;;;;;14.70;12.25;;;;;;;17.25;24.95;101532.41;10333802;28;20049;-62
2022/03/21 16:51:41;;;;;;;12.93;11.73;;;;;;;17.22;25.53;101554.19;10332228;28;20052;-59
2022/03/21 16:56:43;;;;;;;13.25;11.63;;;;;;;17.14;25.61;101545.94;10338650;28;20150;-59
2022/03/21 17:01:44;;;;;;;12.93;11.68;;;;;;;17.02;25.93;101552.41;10339780;28;20502;-58
2022/03/21 17:06:46;;;;;;;14.65;13.10;;;;;;;16.93;26.32;101546.84;10344234;28;20056;-61
2022/03/21 17:11:47;;;;;;;14.98;11.88;;;;;;;16.76;26.01;101542.03;10333495;28;20056;-59
2022/03/21 17:16:49;;;;;;;12.32;11.13;;;;;;;16.71;26.51;101536.19;10339955;28;20071;-61
2022/03/21 17:27:13;;;;;;;13.20;11.80;;;;;;;16.50;26.83;101555.88;10338544;28;20672;-60
2022/03/21 17:32:16;;;;;;;13.05;11.70;;;;;;;16.35;27.08;101555.34;10341804;28;20292;-60
2022/03/21 17:37:33;;;;;;;14.27;11.90;;;;;;;16.13;27.18;101540.16;10333365;28;20054;-59
2022/03/21 17:42:35;;;;;;;14.18;11.25;;;;;;;16.14;27.61;101557.13;10341659;28;20059;-59
2022/03/21 17:47:36;;;;;;;14.05;12.60;;;;;;;16.08;27.91;101577.31;10342192;28;20232;-60
2022/03/21 17:52:38;;;;;;;12.00;10.80;;;;;;;15.97;27.58;101578.19;10343800;28;20057;-60
2022/03/21 17:57:41;;;;;;;15.32;11.05;;;;;;;15.87;27.79;101583.47;10336762;28;20061;-61
2022/03/21 18:02:44;;;;;;;14.75;10.82;;;;;;;15.75;27.60;101584.44;10346925;28;20710;-61
2022/03/21 18:07:46;;;;;;;12.88;10.70;;;;;;;15.62;27.81;101586.41;10348056;28;20053;-61
2022/03/21 18:12:47;;;;;;;12.60;10.93;;;;;;;15.50;27.97;101591.78;10346820;28;20156;-61
2022/03/21 18:17:48;;;;;;;14.38;10.70;;;;;;;15.35;28.60;101598.38;10353530;28;20056;-61
2022/03/21 18:22:50;;;;;;;13.43;11.00;;;;;;;15.21;28.28;101596.81;10349266;28;20053;-61
2022/03/21 18:27:54;;;;;;;12.90;11.57;;;;;;;15.13;28.25;101608.13;10349399;28;20089;-60
2022/03/21 18:32:56;;;;;;;16.08;10.32;;;;;;;14.93;28.14;101604.31;10346797;28;20070;-60
2022/03/21 18:37:58;;;;;;;13.23;10.57;;;;;;;14.96;28.75;101613.94;10347494;28;20051;-62
2022/03/21 18:43:00;;;;;;;12.10;10.88;;;;;;;14.91;28.94;101617.00;10345238;28;20057;-60
2022/03/21 18:48:01;;;;;;;12.45;11.18;;;;;;;14.83;29.23;101619.38;10344413;28;20045;-59
2022/03/21 18:53:03;;;;;;;12.48;11.18;;;;;;;14.79;29.31;101621.47;10345433;28;20153;-60
2022/03/21 18:58:04;;;;;;;14.80;12.70;;;;;;;14.73;29.36;101624.63;10349343;28;20141;-60
2022/03/21 19:03:13;;;;;;;16.58;13.60;;;;;;;14.47;29.99;101614.03;10348395;28;20139;-60
2022/03/21 19:08:15;;;;;;;14.23;12.73;;;;;;;14.57;30.08;101637.44;10345689;28;20049;-60
2022/03/21 19:13:17;;;;;;;13.68;11.95;;;;;;;14.39;30.20;101631.63;10347961;28;20911;-60
2022/03/21 19:18:18;;;;;;;13.57;11.95;;;;;;;14.41;30.97;101641.28;10346250;28;20235;-60
2022/03/21 19:23:19;;;;;;;17.17;12.95;;;;;;;14.41;30.64;101649.31;10342652;28;20057;-62
2022/03/21 19:28:21;;;;;;;16.90;12.43;;;;;;;14.40;30.58;101649.44;10339272;28;20125;-61
2022/03/21 19:33:23;;;;;;;13.32;11.93;;;;;;;14.34;30.53;101653.41;10341274;28;20081;-61
2022/03/21 19:38:25;;;;;;;14.05;12.65;;;;;;;14.26;30.98;101651.31;10337963;28;20053;-62
2022/03/21 19:43:27;;;;;;;13.85;12.15;;;;;;;14.21;30.67;101663.31;10342363;28;20060;-60
2022/03/21 19:48:28;;;;;;;15.02;12.30;;;;;;;13.99;30.84;101646.16;10343715;28;20045;-60
2022/03/21 19:53:30;;;;;;;12.82;11.57;;;;;;;13.97;30.95;101661.47;10344855;28;20054;-60
2022/03/21 19:58:33;;;;;;;12.85;11.55;;;;;;;13.89;30.80;101666.53;10342220;28;20081;-60
2022/03/21 20:03:34;;;;;;;12.43;11.15;;;;;;;13.69;30.89;101660.78;10336580;28;20045;-60
2022/03/21 20:08:36;;;;;;;13.50;12.10;;;;;;;13.72;30.98;101670.41;10339801;28;20095;-60
2022/03/21 20:13:38;;;;;;;13.45;11.55;;;;;;;13.66;31.02;101670.84;10338078;28;20600;-60
2022/03/21 20:18:42;;;;;;;12.95;11.65;;;;;;;13.58;30.97;101674.06;10342894;28;20045;-61
2022/03/21 20:23:44;;;;;;;12.25;11.05;;;;;;;13.53;30.77;101677.06;10338518;28;20931;-62
2022/03/21 20:28:46;;;;;;;14.30;12.77;;;;;;;13.46;30.98;101672.25;10355260;28;20046;-61
2022/03/21 20:33:47;;;;;;;12.43;11.02;;;;;;;13.42;30.98;101674.28;10342642;28;20516;-61
2022/03/21 20:38:50;;;;;;;15.48;12.50;;;;;;;13.36;31.00;101675.56;10345726;28;20056;-59
2022/03/21 20:43:53;;;;;;;13.25;11.85;;;;;;;13.24;31.24;101671.03;10340496;28;20057;-59
2022/03/21 20:48:55;;;;;;;13.68;11.48;;;;;;;13.29;30.70;101690.28;10339084;28;20054;-60
2022/03/21 20:53:56;;;;;;;13.75;12.20;;;;;;;13.20;31.12;101682.91;10341268;28;20683;-60
2022/03/21 20:58:58;;;;;;;13.15;11.77;;;;;;;13.16;31.22;101689.44;10343136;28;20049;-59
2022/03/21 21:04:00;;;;;;;13.32;11.73;;;;;;;13.05;30.85;101680.31;10337813;28;20189;-60
2022/03/21 21:09:02;;;;;;;14.82;12.20;;;;;;;13.06;30.85;101689.19;10340864;28;20156;-60
2022/03/21 21:14:03;;;;;;;13.18;11.80;;;;;;;13.05;30.75;101692.84;10339636;28;20065;-60
2022/03/21 21:19:06;;;;;;;20.27;12.27;;;;;;;12.96;30.93;101683.63;10340606;28;20057;-62
2022/03/21 21:24:09;;;;;;;14.20;12.13;;;;;;;12.93;30.91;101689.19;10341842;28;20250;-60
2022/03/21 21:29:11;;;;;;;13.05;11.57;;;;;;;12.84;30.94;101684.47;10343253;28;20042;-61
2022/03/21 21:34:12;;;;;;;14.82;11.43;;;;;;;12.79;31.14;101684.78;10332064;28;20215;-63
2022/03/21 21:39:14;;;;;;;16.08;12.05;;;;;;;12.72;31.21;101684.31;10340925;28;20037;-60
2022/03/21 21:44:15;;;;;;;12.23;11.02;;;;;;;12.69;31.34;101681.84;10346304;28;20333;-60
2022/03/21 21:49:17;;;;;;;13.77;10.35;;;;;;;12.67;31.30;101682.91;10351945;28;20144;-61
2022/03/21 21:54:19;;;;;;;12.80;11.50;;;;;;;12.57;31.55;101677.31;10355405;28;20665;-59
2022/03/21 21:59:21;;;;;;;13.15;11.73;;;;;;;12.56;31.48;101683.63;10354871;28;20128;-59
2022/03/21 22:04:23;;;;;;;12.55;11.25;;;;;;;12.44;31.55;101677.28;10347067;28;20049;-60
2022/03/21 22:09:24;;;;;;;12.73;11.48;;;;;;;12.36;32.03;101674.25;10348802;28;20056;-60
2022/03/21 22:14:30;;;;;;;13.02;11.73;;;;;;;12.39;33.06;101679.41;10354778;28;20104;-60
2022/03/21 22:19:31;;;;;;;15.82;12.38;;;;;;;12.22;32.99;101669.81;10343541;28;20906;-61
2022/03/21 22:24:32;;;;;;;14.77;12.10;;;;;;;12.20;33.15;101682.41;10363766;28;20054;-60
2022/03/21 22:29:34;;;;;;;14.40;12.95;;;;;;;12.12;33.96;101684.72;10352161;28;20045;-61
2022/03/21 22:34:35;;;;;;;14.65;13.10;;;;;;;12.08;34.31;101686.72;10352305;28;20052;-60
2022/03/21 22:50:22;;;;;;;15.40;12.98;;;;;;;11.65;35.21;101681.41;10355208;28;20052;-61
2022/03/21 22:55:23;;;;;;;14.73;11.93;;;;;;;11.70;35.35;101691.78;10361293;28;20779;-60
2022/03/21 23:00:38;;;;;;;14.20;12.82;;;;;;;11.67;35.79;101701.69;10357485;28;20054;-60
2022/03/21 23:05:42;;;;;;;13.00;11.68;;;;;;;11.45;35.62;101664.84;10358954;28;20153;-58
2022/03/21 23:10:44;;;;;;;13.60;12.27;;;;;;;11.51;35.88;101703.56;10358097;28;20100;-60
2022/03/21 23:15:45;;;;;;;13.15;11.80;;;;;;;11.49;36.30;101700.16;10356384;28;20496;-59
2022/03/21 23:20:47;;;;;;;14.07;12.68;;;;;;;11.35;35.82;101698.34;10358976;28;20055;-60
2022/03/21 23:25:49;;;;;;;14.20;12.80;;;;;;;11.18;36.00;101694.00;10354288;28;20174;-60